createdAt,value
2023-03-23T15:59:14.992Z,66.40
2023-03-23T16:01:41.716Z,67.20
2023-03-23T16:04:14.335Z,67.00
2023-03-23T16:06:40.661Z,67.50
2023-03-23T16:09:07.049Z,67.60
2023-03-23T16:11:33.745Z,68.40
2023-03-23T16:14:00.958Z,68.20
2023-03-23T16:16:37.023Z,69.00
2023-03-23T16:19:03.450Z,69.10
2023-03-23T16:21:29.844Z,68.80
2023-03-23T16:23:56.628Z,69.40
2023-03-23T16:26:24.056Z,69.20
2023-03-23T16:28:50.629Z,70.20
2023-03-23T16:31:18.601Z,70.00
2023-03-23T16:33:46.348Z,71.60
2023-03-23T16:36:12.786Z,71.90
2023-03-23T16:38:49.366Z,72.00
2023-03-23T16:41:17.623Z,72.30
2023-03-23T16:43:44.772Z,73.10
2023-03-23T16:46:11.444Z,72.40
2023-03-23T16:48:38.464Z,73.10
2023-03-23T16:51:06.467Z,73.30
2023-03-23T16:53:32.757Z,73.60
2023-03-23T16:55:59.497Z,74.10
2023-03-23T16:58:27.155Z,75.50
2023-03-23T17:00:53.466Z,76.10
2023-03-23T17:03:21.179Z,76.50
2023-03-23T17:05:51.360Z,77.00
2023-03-23T17:08:19.624Z,76.90
2023-03-23T17:10:46.126Z,76.70
2023-03-23T17:13:12.374Z,77.30
2023-03-23T17:15:40.547Z,76.90
2023-03-23T17:18:07.591Z,77.40
2023-03-23T17:20:34.611Z,77.80
2023-03-23T17:23:00.792Z,78.80
2023-03-23T17:25:27.739Z,78.60
2023-03-23T17:27:54.531Z,79.90
2023-03-23T17:30:20.907Z,80.20
2023-03-23T17:32:48.256Z,79.80
2023-03-23T17:35:15.138Z,80.40
2023-03-23T17:37:41.944Z,82.40
2023-03-23T17:40:09.939Z,80.50
2023-03-23T17:42:37.517Z,81.90
2023-03-23T17:45:06.618Z,81.30
2023-03-23T17:47:33.514Z,81.10
2023-03-23T17:49:59.976Z,81.30
2023-03-23T17:52:26.179Z,81.90
2023-03-23T17:54:53.444Z,81.40
2023-03-23T17:57:20.462Z,81.80
2023-03-23T17:59:47.006Z,82.30
2023-03-23T18:02:13.569Z,84.10
2023-03-23T18:04:41.822Z,81.90
2023-03-23T18:07:08.865Z,81.40
2023-03-23T18:09:35.681Z,81.10
2023-03-23T18:12:02.347Z,80.80
2023-03-23T18:14:28.658Z,80.50
2023-03-23T18:16:55.463Z,79.80
2023-03-23T18:19:22.361Z,79.50
2023-03-23T18:21:49.667Z,80.00
2023-03-23T18:24:16.621Z,79.70
2023-03-23T18:26:43.228Z,80.60
2023-03-23T18:29:09.502Z,82.90
2023-03-23T18:31:39.247Z,80.30
2023-03-23T18:34:05.488Z,79.80
2023-03-23T18:36:32.302Z,79.60
2023-03-23T18:38:59.637Z,79.10
2023-03-23T18:41:26.245Z,78.90
2023-03-23T18:43:52.710Z,78.30
2023-03-23T18:46:19.042Z,78.20
2023-03-23T18:48:45.616Z,78.40
2023-03-23T18:51:11.766Z,77.50
2023-03-23T18:53:37.986Z,77.60
2023-03-23T18:56:10.225Z,77.80
2023-03-23T18:58:38.268Z,78.10
2023-03-23T19:01:08.330Z,78.20
2023-03-23T19:03:35.571Z,77.80
2023-03-23T19:06:04.030Z,77.40
2023-03-23T19:08:30.958Z,77.30
2023-03-23T19:11:00.263Z,78.20
2023-03-23T19:13:27.908Z,78.40
2023-03-23T19:15:54.410Z,80.50
2023-03-23T19:18:20.801Z,81.10
2023-03-23T19:21:12.681Z,81.50
2023-03-23T19:23:41.582Z,81.40
2023-03-23T19:26:07.868Z,83.60
2023-03-23T19:31:05.738Z,82.10
2023-03-23T19:33:33.575Z,84.20
2023-03-23T19:38:32.033Z,83.40
2023-03-23T19:41:03.609Z,83.90
2023-03-23T19:43:31.249Z,84.20
2023-03-23T19:45:57.606Z,86.00
2023-03-23T19:48:24.070Z,86.50
2023-03-23T19:50:52.603Z,86.80
2023-03-23T19:53:19.527Z,87.30
2023-03-23T19:55:46.332Z,87.80
2023-03-23T19:58:12.618Z,88.30
2023-03-23T20:00:38.894Z,88.30
2023-03-23T20:03:05.737Z,87.40
2023-03-23T20:05:34.325Z,87.60
2023-03-23T20:08:02.746Z,87.90
2023-03-23T20:10:30.371Z,88.20
2023-03-23T20:12:57.822Z,87.00
2023-03-23T20:15:24.966Z,86.60
2023-03-23T20:17:51.840Z,85.80
2023-03-23T20:20:20.203Z,85.10
2023-03-23T20:22:46.589Z,84.80
2023-03-23T20:25:13.972Z,84.40
2023-03-23T20:27:42.248Z,84.40
2023-03-23T20:30:09.752Z,84.20
2023-03-23T20:32:36.706Z,84.70
2023-03-23T20:35:08.652Z,84.40
2023-03-23T20:37:37.544Z,84.70
2023-03-23T20:40:07.799Z,85.10
2023-03-23T20:42:34.587Z,85.10
2023-03-23T20:45:02.015Z,84.60
2023-03-23T20:47:28.292Z,85.00
2023-03-23T20:49:55.531Z,85.00
2023-03-23T20:52:23.042Z,85.90
2023-03-23T20:54:50.873Z,85.90
2023-03-23T20:57:18.771Z,86.30
2023-03-23T20:59:45.197Z,87.60
2023-03-23T21:02:14.889Z,88.60
2023-03-23T21:04:42.178Z,90.10
2023-03-23T21:07:10.309Z,90.30
2023-03-23T21:09:37.373Z,90.40
2023-03-23T21:12:04.486Z,90.50
2023-03-23T21:14:31.049Z,90.70
2023-03-23T21:17:01.403Z,91.30
2023-03-23T21:19:29.226Z,92.00
2023-03-23T21:21:57.217Z,92.70
2023-03-23T21:24:29.086Z,92.80
2023-03-23T21:26:56.888Z,93.40
2023-03-23T21:29:23.478Z,93.80
2023-03-23T21:32:01.205Z,93.90
2023-03-23T21:34:33.891Z,94.00
2023-03-23T21:37:00.143Z,94.10
2023-03-23T21:39:28.821Z,94.20
2023-03-23T21:41:55.074Z,94.00
2023-03-23T21:44:21.607Z,94.20
2023-03-23T21:46:49.212Z,93.80
2023-03-23T21:49:15.613Z,93.90
2023-03-23T21:51:42.865Z,93.70
2023-03-23T21:54:10.912Z,94.10
2023-03-23T21:56:37.850Z,94.10
2023-03-23T21:59:06.759Z,94.60
2023-03-23T22:01:36.958Z,94.80
2023-03-23T22:04:05.725Z,95.60
2023-03-23T22:06:34.913Z,95.70
2023-03-23T22:09:04.581Z,95.90
2023-03-23T22:11:32.067Z,96.40
2023-03-23T22:13:58.370Z,97.30
2023-03-23T22:16:25.445Z,97.50
2023-03-23T22:18:52.622Z,97.60
2023-03-23T22:21:22.111Z,97.50
2023-03-23T22:23:49.005Z,97.20
2023-03-23T22:26:16.703Z,97.10
2023-03-23T22:28:45.156Z,96.80
2023-03-23T22:31:18.148Z,96.90
2023-03-23T22:33:45.599Z,96.70
2023-03-23T22:36:13.327Z,97.30
2023-03-23T22:38:41.365Z,97.40
2023-03-23T22:41:07.954Z,98.00
2023-03-23T22:43:36.041Z,97.90
2023-03-23T22:46:04.176Z,98.10
2023-03-23T22:48:31.008Z,98.20
2023-03-23T22:50:58.440Z,98.10
2023-03-23T22:53:25.455Z,97.90
2023-03-23T22:55:54.566Z,99.70
2023-03-23T22:58:20.877Z,99.70
2023-03-23T23:00:50.606Z,99.90
2023-03-23T23:03:18.052Z,99.90
2023-03-23T23:05:45.862Z,99.90
2023-03-23T23:08:14.663Z,99.90
2023-03-23T23:10:45.644Z,99.90
2023-03-23T23:13:13.918Z,99.90
2023-03-23T23:15:42.835Z,99.90
2023-03-23T23:18:09.647Z,99.90
2023-03-23T23:20:36.081Z,99.90
2023-03-23T23:23:02.363Z,99.80
2023-03-23T23:25:28.879Z,99.40
2023-03-23T23:27:57.562Z,99.90
2023-03-23T23:30:25.127Z,99.90
2023-03-23T23:32:52.041Z,99.90
2023-03-23T23:35:19.795Z,99.90
2023-03-23T23:37:46.158Z,99.90
2023-03-23T23:40:15.236Z,99.90
2023-03-23T23:42:46.256Z,99.90
2023-03-23T23:45:13.275Z,99.90
2023-03-23T23:47:40.274Z,99.50
2023-03-23T23:50:07.995Z,99.60
2023-03-23T23:52:35.330Z,99.00
2023-03-23T23:55:03.617Z,98.70
2023-03-23T23:57:29.939Z,98.40
2023-03-23T23:59:56.384Z,97.70
